sensor_id;sensor_type;location;lat;lon;timestamp;pressure;altitude;pressure_sealevel;temperature;humidity
49461;BME280;35355;49.198;-0.368;2023-01-30T00:00:27;102126.53;;;5.72;84.93
49461;BME280;35355;49.198;-0.368;2023-01-30T00:02:52;102122.97;;;5.71;84.61
49461;BME280;35355;49.198;-0.368;2023-01-30T00:05:18;102113.00;;;5.72;85.19
49461;BME280;35355;49.198;-0.368;2023-01-30T00:07:43;102106.56;;;5.73;85.01
49461;BME280;35355;49.198;-0.368;2023-01-30T00:10:09;102103.00;;;5.72;84.60
49461;BME280;35355;49.198;-0.368;2023-01-30T00:12:34;102088.81;;;5.70;85.19
49461;BME280;35355;49.198;-0.368;2023-01-30T00:14:59;102083.81;;;5.74;84.26
49461;BME280;35355;49.198;-0.368;2023-01-30T00:17:25;102081.13;;;5.74;84.20
49461;BME280;35355;49.198;-0.368;2023-01-30T00:19:50;102075.91;;;5.72;85.02
49461;BME280;35355;49.198;-0.368;2023-01-30T00:22:16;102078.22;;;5.75;84.40
49461;BME280;35355;49.198;-0.368;2023-01-30T00:24:41;102079.28;;;5.74;84.91
49461;BME280;35355;49.198;-0.368;2023-01-30T00:27:06;102082.41;;;5.78;84.95
49461;BME280;35355;49.198;-0.368;2023-01-30T00:29:31;102086.59;;;5.80;84.38
49461;BME280;35355;49.198;-0.368;2023-01-30T00:31:57;102079.50;;;5.79;84.42
49461;BME280;35355;49.198;-0.368;2023-01-30T00:34:22;102076.41;;;5.83;84.27
49461;BME280;35355;49.198;-0.368;2023-01-30T00:36:47;102078.91;;;5.84;84.89
49461;BME280;35355;49.198;-0.368;2023-01-30T00:39:13;102072.66;;;5.84;85.24
49461;BME280;35355;49.198;-0.368;2023-01-30T00:41:38;102074.16;;;5.86;85.20
49461;BME280;35355;49.198;-0.368;2023-01-30T00:44:22;102063.69;;;5.83;84.60
49461;BME280;35355;49.198;-0.368;2023-01-30T00:47:06;102062.44;;;5.86;84.65
49461;BME280;35355;49.198;-0.368;2023-01-30T00:49:34;102060.59;;;5.86;84.64
49461;BME280;35355;49.198;-0.368;2023-01-30T00:51:59;102054.97;;;5.88;84.63
49461;BME280;35355;49.198;-0.368;2023-01-30T00:54:25;102054.97;;;5.88;84.63
49461;BME280;35355;49.198;-0.368;2023-01-30T00:56:50;102059.53;;;5.87;85.13
49461;BME280;35355;49.198;-0.368;2023-01-30T00:59:16;102061.41;;;5.87;84.78
49461;BME280;35355;49.198;-0.368;2023-01-30T01:01:41;102055.81;;;5.88;84.69
49461;BME280;35355;49.198;-0.368;2023-01-30T01:04:07;102053.09;;;5.88;84.92
49461;BME280;35355;49.198;-0.368;2023-01-30T01:06:35;102057.69;;;5.88;84.76
49461;BME280;35355;49.198;-0.368;2023-01-30T01:09:00;102045.16;;;5.87;85.44
49461;BME280;35355;49.198;-0.368;2023-01-30T01:11:26;102047.25;;;5.85;84.70
49461;BME280;35355;49.198;-0.368;2023-01-30T01:13:53;102052.47;;;5.86;85.06
49461;BME280;35355;49.198;-0.368;2023-01-30T01:16:19;102043.88;;;5.83;85.08
49461;BME280;35355;49.198;-0.368;2023-01-30T01:18:45;102048.06;;;5.85;85.04
49461;BME280;35355;49.198;-0.368;2023-01-30T01:21:10;102049.34;;;5.89;84.72
49461;BME280;35355;49.198;-0.368;2023-01-30T01:23:35;102040.38;;;5.89;84.94
49461;BME280;35355;49.198;-0.368;2023-01-30T01:26:01;102041.03;;;5.91;84.68
49461;BME280;35355;49.198;-0.368;2023-01-30T01:28:27;102041.03;;;5.91;84.09
49461;BME280;35355;49.198;-0.368;2023-01-30T01:30:52;102045.59;;;5.90;84.65
49461;BME280;35355;49.198;-0.368;2023-01-30T01:33:17;102033.09;;;5.89;85.00
49461;BME280;35355;49.198;-0.368;2023-01-30T01:35:43;102032.25;;;5.89;84.46
49461;BME280;35355;49.198;-0.368;2023-01-30T01:38:08;102020.78;;;5.87;84.65
49461;BME280;35355;49.198;-0.368;2023-01-30T01:40:33;102021.81;;;5.86;85.21
49461;BME280;35355;49.198;-0.368;2023-01-30T01:43:22;102034.31;;;5.87;84.63
49461;BME280;35355;49.198;-0.368;2023-01-30T01:45:54;102024.72;;;5.84;84.99
49461;BME280;35355;49.198;-0.368;2023-01-30T01:48:26;102006.41;;;5.86;85.24
49461;BME280;35355;49.198;-0.368;2023-01-30T01:50:56;102004.72;;;5.85;84.52
49461;BME280;35355;49.198;-0.368;2023-01-30T01:53:26;102013.03;;;5.84;85.14
49461;BME280;35355;49.198;-0.368;2023-01-30T01:55:56;102002.41;;;5.82;84.39
49461;BME280;35355;49.198;-0.368;2023-01-30T01:58:27;102004.25;;;5.82;85.27
49461;BME280;35355;49.198;-0.368;2023-01-30T02:00:56;102015.09;;;5.82;85.04
49461;BME280;35355;49.198;-0.368;2023-01-30T02:03:24;102018.47;;;5.84;85.25
49461;BME280;35355;49.198;-0.368;2023-01-30T02:05:54;102018.47;;;5.84;85.04
49461;BME280;35355;49.198;-0.368;2023-01-30T02:08:23;102022.19;;;5.83;85.04
49461;BME280;35355;49.198;-0.368;2023-01-30T02:11:02;102020.91;;;5.78;84.71
49461;BME280;35355;49.198;-0.368;2023-01-30T02:13:30;102032.34;;;5.74;85.04
49461;BME280;35355;49.198;-0.368;2023-01-30T02:16:00;102050.50;;;5.73;85.33
49461;BME280;35355;49.198;-0.368;2023-01-30T02:18:30;102043.00;;;5.75;85.22
49461;BME280;35355;49.198;-0.368;2023-01-30T02:21:11;102043.00;;;5.75;85.64
49461;BME280;35355;49.198;-0.368;2023-01-30T02:26:44;102043.06;;;5.82;85.03
49461;BME280;35355;49.198;-0.368;2023-01-30T02:39:43;102046.59;;;5.83;84.76
49461;BME280;35355;49.198;-0.368;2023-01-30T02:42:28;102043.25;;;5.80;85.46
49461;BME280;35355;49.198;-0.368;2023-01-30T02:45:33;102045.09;;;5.80;85.45
49461;BME280;35355;49.198;-0.368;2023-01-30T02:48:03;102031.94;;;5.77;85.28
49461;BME280;35355;49.198;-0.368;2023-01-30T02:50:48;102032.16;;;5.75;84.82
49461;BME280;35355;49.198;-0.368;2023-01-30T02:53:15;102029.22;;;5.70;85.74
49461;BME280;35355;49.198;-0.368;2023-01-30T02:55:41;102038.81;;;5.73;85.29
49461;BME280;35355;49.198;-0.368;2023-01-30T02:58:07;102040.69;;;5.72;85.54
49461;BME280;35355;49.198;-0.368;2023-01-30T03:00:54;102028.00;;;5.73;86.13
49461;BME280;35355;49.198;-0.368;2023-01-30T03:12:04;102023.41;;;5.73;86.02
49461;BME280;35355;49.198;-0.368;2023-01-30T03:15:07;102025.09;;;5.74;85.69
49461;BME280;35355;49.198;-0.368;2023-01-30T03:17:35;102027.78;;;5.74;86.79
49461;BME280;35355;49.198;-0.368;2023-01-30T03:20:01;102022.56;;;5.73;86.65
49461;BME280;35355;49.198;-0.368;2023-01-30T03:22:27;102023.41;;;5.73;85.62
49461;BME280;35355;49.198;-0.368;2023-01-30T03:24:53;102026.53;;;5.77;86.36
49461;BME280;35355;49.198;-0.368;2023-01-30T03:27:19;102028.22;;;5.78;86.20
49461;BME280;35355;49.198;-0.368;2023-01-30T03:29:45;102035.94;;;5.81;86.54
49461;BME280;35355;49.198;-0.368;2023-01-30T03:32:11;102015.28;;;5.73;86.28
49461;BME280;35355;49.198;-0.368;2023-01-30T03:34:36;102025.31;;;5.79;86.63
49461;BME280;35355;49.198;-0.368;2023-01-30T03:37:03;102023.06;;;5.83;86.73
49461;BME280;35355;49.198;-0.368;2023-01-30T03:39:29;102024.72;;;5.84;86.79
49461;BME280;35355;49.198;-0.368;2023-01-30T03:41:54;102006.97;;;5.82;86.14
49461;BME280;35355;49.198;-0.368;2023-01-30T03:44:20;102017.63;;;5.83;86.91
49461;BME280;35355;49.198;-0.368;2023-01-30T03:46:45;102025.78;;;5.83;86.06
49461;BME280;35355;49.198;-0.368;2023-01-30T03:49:11;102026.59;;;5.84;86.69
49461;BME280;35355;49.198;-0.368;2023-01-30T03:51:37;102024.72;;;5.84;86.45
49461;BME280;35355;49.198;-0.368;2023-01-30T03:54:02;102025.56;;;5.85;86.51
49461;BME280;35355;49.198;-0.368;2023-01-30T03:56:28;102016.59;;;5.84;86.49
49461;BME280;35355;49.198;-0.368;2023-01-30T03:58:54;102012.66;;;5.87;86.61
49461;BME280;35355;49.198;-0.368;2023-01-30T04:01:19;102018.88;;;5.87;86.82
49461;BME280;35355;49.198;-0.368;2023-01-30T04:03:45;102012.66;;;5.87;87.29
49461;BME280;35355;49.198;-0.368;2023-01-30T04:06:10;102004.31;;;5.88;86.45
49461;BME280;35355;49.198;-0.368;2023-01-30T04:08:36;101995.16;;;5.89;86.95
49461;BME280;35355;49.198;-0.368;2023-01-30T04:11:01;101992.66;;;5.88;87.12
49461;BME280;35355;49.198;-0.368;2023-01-30T04:13:26;102003.09;;;5.91;87.14
49461;BME280;35355;49.198;-0.368;2023-01-30T04:15:52;101999.13;;;5.93;87.09
49461;BME280;35355;49.198;-0.368;2023-01-30T04:18:17;101992.69;;;5.94;86.57
49461;BME280;35355;49.198;-0.368;2023-01-30T04:20:42;102002.31;;;5.97;86.95
49461;BME280;35355;49.198;-0.368;2023-01-30T04:23:08;102001.66;;;5.95;86.69
49461;BME280;35355;49.198;-0.368;2023-01-30T04:25:33;101990.44;;;5.98;86.82
49461;BME280;35355;49.198;-0.368;2023-01-30T04:27:59;101992.75;;;6.01;87.20
49461;BME280;35355;49.198;-0.368;2023-01-30T04:30:24;101994.59;;;6.01;86.95
49461;BME280;35355;49.198;-0.368;2023-01-30T04:32:49;101998.19;;;6.01;86.59
49461;BME280;35355;49.198;-0.368;2023-01-30T04:35:15;101986.28;;;6.02;86.86
49461;BME280;35355;49.198;-0.368;2023-01-30T04:37:40;101995.06;;;6.04;87.06
49461;BME280;35355;49.198;-0.368;2023-01-30T04:40:06;101993.19;;;6.05;87.38
49461;BME280;35355;49.198;-0.368;2023-01-30T04:42:31;101984.03;;;6.06;87.21
49461;BME280;35355;49.198;-0.368;2023-01-30T04:44:56;101981.09;;;6.07;87.20
49461;BME280;35355;49.198;-0.368;2023-01-30T04:47:22;101979.44;;;6.06;87.15
49461;BME280;35355;49.198;-0.368;2023-01-30T04:49:47;101979.22;;;6.08;87.18
49461;BME280;35355;49.198;-0.368;2023-01-30T04:52:12;101976.72;;;6.06;87.08
49461;BME280;35355;49.198;-0.368;2023-01-30T04:54:38;101982.78;;;6.08;87.38
49461;BME280;35355;49.198;-0.368;2023-01-30T04:57:03;101993.63;;;6.08;87.32
49461;BME280;35355;49.198;-0.368;2023-01-30T04:59:28;101986.13;;;6.10;87.25
49461;BME280;35355;49.198;-0.368;2023-01-30T05:01:54;101986.13;;;6.10;87.44
49461;BME280;35355;49.198;-0.368;2023-01-30T05:04:19;101988.44;;;6.13;87.20
49461;BME280;35355;49.198;-0.368;2023-01-30T05:06:45;101989.06;;;6.15;88.07
49461;BME280;35355;49.198;-0.368;2023-01-30T05:09:10;101996.16;;;6.17;87.75
49461;BME280;35355;49.198;-0.368;2023-01-30T05:11:36;101976.34;;;6.16;87.12
49461;BME280;35355;49.198;-0.368;2023-01-30T05:14:01;101974.25;;;6.18;87.79
49461;BME280;35355;49.198;-0.368;2023-01-30T05:16:27;101966.13;;;6.18;87.10
49461;BME280;35355;49.198;-0.368;2023-01-30T05:18:52;101963.63;;;6.17;87.10
49461;BME280;35355;49.198;-0.368;2023-01-30T05:21:23;101960.28;;;6.14;87.04
49461;BME280;35355;49.198;-0.368;2023-01-30T05:23:51;101968.63;;;6.13;87.53
49461;BME280;35355;49.198;-0.368;2023-01-30T05:26:17;101971.13;;;6.14;86.92
49461;BME280;35355;49.198;-0.368;2023-01-30T05:28:42;101979.25;;;6.14;87.93
49461;BME280;35355;49.198;-0.368;2023-01-30T05:52:39;101999.06;;;5.52;86.51
49461;BME280;35355;49.198;-0.368;2023-01-30T05:55:05;101996.16;;;5.53;87.08
49461;BME280;35355;49.198;-0.368;2023-01-30T05:57:30;101987.44;;;5.58;87.29
49461;BME280;35355;49.198;-0.368;2023-01-30T05:59:56;101975.84;;;5.64;87.35
49461;BME280;35355;49.198;-0.368;2023-01-30T06:02:21;101981.72;;;5.74;88.12
49461;BME280;35355;49.198;-0.368;2023-01-30T06:04:46;101981.75;;;5.81;87.08
49461;BME280;35355;49.198;-0.368;2023-01-30T06:07:13;101976.78;;;5.85;87.95
49461;BME280;35355;49.198;-0.368;2023-01-30T06:09:38;101985.97;;;5.90;88.02
49461;BME280;35355;49.198;-0.368;2023-01-30T06:12:05;101977.28;;;5.95;87.81
49461;BME280;35355;49.198;-0.368;2023-01-30T06:14:30;101976.69;;;6.00;87.74
49461;BME280;35355;49.198;-0.368;2023-01-30T06:16:56;101982.53;;;6.03;88.18
49461;BME280;35355;49.198;-0.368;2023-01-30T06:19:21;101980.28;;;6.07;88.48
49461;BME280;35355;49.198;-0.368;2023-01-30T06:21:47;101986.53;;;6.07;88.22
49461;BME280;35355;49.198;-0.368;2023-01-30T06:24:12;101980.69;;;6.10;88.21
49461;BME280;35355;49.198;-0.368;2023-01-30T06:26:37;101993.84;;;6.13;88.17
49461;BME280;35355;49.198;-0.368;2023-01-30T06:29:03;101995.13;;;6.18;88.60
49461;BME280;35355;49.198;-0.368;2023-01-30T06:31:28;101989.06;;;6.15;87.96
49461;BME280;35355;49.198;-0.368;2023-01-30T06:33:53;101992.84;;;6.21;88.11
49461;BME280;35355;49.198;-0.368;2023-01-30T06:36:19;101994.53;;;6.22;88.24
49461;BME280;35355;49.198;-0.368;2023-01-30T06:38:44;101993.28;;;6.25;88.12
49461;BME280;35355;49.198;-0.368;2023-01-30T06:41:09;102000.34;;;6.26;88.01
49461;BME280;35355;49.198;-0.368;2023-01-30T06:43:34;102002.03;;;6.27;88.41
49461;BME280;35355;49.198;-0.368;2023-01-30T06:46:00;102003.31;;;6.31;88.58
49461;BME280;35355;49.198;-0.368;2023-01-30T06:48:25;102007.25;;;6.28;88.77
49461;BME280;35355;49.198;-0.368;2023-01-30T06:50:51;102020.41;;;6.31;88.65
49461;BME280;35355;49.198;-0.368;2023-01-30T06:53:16;102016.06;;;6.30;88.93
49461;BME280;35355;49.198;-0.368;2023-01-30T06:55:42;102018.56;;;6.32;88.18
49461;BME280;35355;49.198;-0.368;2023-01-30T06:58:12;102020.00;;;6.35;88.37
49461;BME280;35355;49.198;-0.368;2023-01-30T07:00:39;102023.56;;;6.35;88.73
49461;BME280;35355;49.198;-0.368;2023-01-30T07:03:09;102017.75;;;6.38;88.13
49461;BME280;35355;49.198;-0.368;2023-01-30T07:05:37;102015.84;;;6.39;88.14
49461;BME280;35355;49.198;-0.368;2023-01-30T07:08:02;102017.53;;;6.40;87.92
49461;BME280;35355;49.198;-0.368;2023-01-30T07:10:28;102026.72;;;6.39;89.12
49461;BME280;35355;49.198;-0.368;2023-01-30T07:12:56;102029.22;;;6.40;88.54
49461;BME280;35355;49.198;-0.368;2023-01-30T07:15:21;102027.56;;;6.39;88.65
49461;BME280;35355;49.198;-0.368;2023-01-30T07:17:46;102025.03;;;6.38;89.28
49461;BME280;35355;49.198;-0.368;2023-01-30T07:20:12;102036.31;;;6.41;88.98
49461;BME280;35355;49.198;-0.368;2023-01-30T07:22:37;102037.81;;;6.44;88.91
49461;BME280;35355;49.198;-0.368;2023-01-30T07:25:03;102045.13;;;6.50;88.60
49461;BME280;35355;49.198;-0.368;2023-01-30T07:27:28;102047.44;;;6.53;88.65
49461;BME280;35355;49.198;-0.368;2023-01-30T07:29:54;102037.59;;;6.52;88.74
49461;BME280;35355;49.198;-0.368;2023-01-30T07:32:19;102051.41;;;6.57;88.63
49461;BME280;35355;49.198;-0.368;2023-01-30T07:34:45;102054.56;;;6.61;88.55
49461;BME280;35355;49.198;-0.368;2023-01-30T07:37:11;102056.22;;;6.62;88.73
49461;BME280;35355;49.198;-0.368;2023-01-30T07:39:36;102053.13;;;6.65;89.19
49461;BME280;35355;49.198;-0.368;2023-01-30T07:42:02;102042.06;;;6.66;88.97
49461;BME280;35355;49.198;-0.368;2023-01-30T07:44:28;102049.38;;;6.66;89.31
49461;BME280;35355;49.198;-0.368;2023-01-30T07:46:53;102057.72;;;6.71;88.96
49461;BME280;35355;49.198;-0.368;2023-01-30T07:49:18;102046.03;;;6.71;88.96
49461;BME280;35355;49.198;-0.368;2023-01-30T07:51:44;102052.94;;;6.73;89.24
49461;BME280;35355;49.198;-0.368;2023-01-30T07:54:09;102057.31;;;6.74;88.94
49461;BME280;35355;49.198;-0.368;2023-01-30T07:56:35;102054.19;;;6.77;88.60
49461;BME280;35355;49.198;-0.368;2023-01-30T07:59:00;102049.63;;;6.78;88.97
49461;BME280;35355;49.198;-0.368;2023-01-30T08:01:26;102056.50;;;6.80;88.71
49461;BME280;35355;49.198;-0.368;2023-01-30T08:03:52;102051.91;;;6.81;89.29
49461;BME280;35355;49.198;-0.368;2023-01-30T08:06:17;102056.50;;;6.80;88.78
49461;BME280;35355;49.198;-0.368;2023-01-30T08:08:43;102043.97;;;6.79;89.31
49461;BME280;35355;49.198;-0.368;2023-01-30T08:11:08;102063.38;;;6.83;89.19
49461;BME280;35355;49.198;-0.368;2023-01-30T08:13:34;102060.69;;;6.83;88.95
49461;BME280;35355;49.198;-0.368;2023-01-30T08:16:00;102062.38;;;6.84;89.11
49461;BME280;35355;49.198;-0.368;2023-01-30T08:18:27;102081.97;;;6.86;89.10
49461;BME280;35355;49.198;-0.368;2023-01-30T08:20:56;102082.84;;;6.87;89.00
49461;BME280;35355;49.198;-0.368;2023-01-30T08:23:21;102079.06;;;6.88;89.51
49461;BME280;35355;49.198;-0.368;2023-01-30T08:25:47;102069.88;;;6.89;89.07
49461;BME280;35355;49.198;-0.368;2023-01-30T08:28:12;102071.78;;;6.95;89.01
49461;BME280;35355;49.198;-0.368;2023-01-30T08:30:40;102076.19;;;6.96;89.46
49461;BME280;35355;49.198;-0.368;2023-01-30T08:33:06;102077.44;;;7.00;88.92
49461;BME280;35355;49.198;-0.368;2023-01-30T08:35:31;102073.03;;;6.99;89.33
49461;BME280;35355;49.198;-0.368;2023-01-30T08:37:56;102092.91;;;7.06;89.53
49461;BME280;35355;49.198;-0.368;2023-01-30T08:40:22;102084.56;;;7.08;89.39
49461;BME280;35355;49.198;-0.368;2023-01-30T08:42:47;102088.34;;;7.13;89.32
49461;BME280;35355;49.198;-0.368;2023-01-30T08:45:12;102095.88;;;7.18;89.36
49461;BME280;35355;49.198;-0.368;2023-01-30T08:47:38;102100.06;;;7.20;89.65
49461;BME280;35355;49.198;-0.368;2023-01-30T08:50:04;102096.06;;;7.23;89.62
49461;BME280;35355;49.198;-0.368;2023-01-30T08:52:31;102090.84;;;7.22;89.31
49461;BME280;35355;49.198;-0.368;2023-01-30T08:54:57;102105.47;;;7.27;89.19
49461;BME280;35355;49.198;-0.368;2023-01-30T08:57:22;102104.44;;;7.28;89.36
49461;BME280;35355;49.198;-0.368;2023-01-30T08:59:48;102107.16;;;7.35;89.78
49461;BME280;35355;49.198;-0.368;2023-01-30T09:02:15;102108.44;;;7.39;89.10
49461;BME280;35355;49.198;-0.368;2023-01-30T09:04:41;102114.91;;;7.38;89.47
49461;BME280;35355;49.198;-0.368;2023-01-30T09:07:06;102112.41;;;7.43;89.37
49461;BME280;35355;49.198;-0.368;2023-01-30T09:09:32;102110.72;;;7.42;89.49
49461;BME280;35355;49.198;-0.368;2023-01-30T09:11:57;102123.47;;;7.48;89.37
49461;BME280;35355;49.198;-0.368;2023-01-30T09:14:22;102121.41;;;7.50;89.70
49461;BME280;35355;49.198;-0.368;2023-01-30T09:16:49;102126.00;;;7.57;89.73
49461;BME280;35355;49.198;-0.368;2023-01-30T09:19:24;102125.16;;;7.63;89.45
49461;BME280;35355;49.198;-0.368;2023-01-30T09:21:51;102120.38;;;7.65;89.67
49461;BME280;35355;49.198;-0.368;2023-01-30T09:24:17;102117.66;;;7.71;89.76
49461;BME280;35355;49.198;-0.368;2023-01-30T09:26:43;102120.19;;;7.80;89.68
49461;BME280;35355;49.198;-0.368;2023-01-30T09:29:13;102109.28;;;7.86;89.53
49461;BME280;35355;49.198;-0.368;2023-01-30T09:31:39;102113.88;;;7.93;89.66
49461;BME280;35355;49.198;-0.368;2023-01-30T09:34:05;102125.81;;;7.98;89.54
49461;BME280;35355;49.198;-0.368;2023-01-30T09:36:32;102119.31;;;8.06;89.46
49461;BME280;35355;49.198;-0.368;2023-01-30T09:38:57;102121.19;;;8.12;89.37
49461;BME280;35355;49.198;-0.368;2023-01-30T09:47:13;102130.38;;;8.24;89.10
49461;BME280;35355;49.198;-0.368;2023-01-30T09:53:11;102129.31;;;8.32;89.09
49461;BME280;35355;49.198;-0.368;2023-01-30T09:55:39;102128.47;;;8.38;89.40
49461;BME280;35355;49.198;-0.368;2023-01-30T09:58:18;102136.84;;;8.43;89.30
49461;BME280;35355;49.198;-0.368;2023-01-30T10:00:44;102132.66;;;8.48;89.38
49461;BME280;35355;49.198;-0.368;2023-01-30T10:03:19;102133.06;;;8.51;89.23
49461;BME280;35355;49.198;-0.368;2023-01-30T10:05:50;102135.56;;;8.53;89.38
49461;BME280;35355;49.198;-0.368;2023-01-30T10:16:26;102149.13;;;8.66;89.35
49461;BME280;35355;49.198;-0.368;2023-01-30T10:21:45;102137.00;;;8.75;89.14
49461;BME280;35355;49.198;-0.368;2023-01-30T10:24:22;102144.69;;;8.85;89.52
49461;BME280;35355;49.198;-0.368;2023-01-30T10:26:50;102150.94;;;8.92;89.38
49461;BME280;35355;49.198;-0.368;2023-01-30T10:31:54;102159.19;;;9.18;89.30
49461;BME280;35355;49.198;-0.368;2023-01-30T10:34:25;102153.25;;;9.34;89.37
49461;BME280;35355;49.198;-0.368;2023-01-30T10:39:49;102163.16;;;9.60;89.15
49461;BME280;35355;49.198;-0.368;2023-01-30T10:42:20;102156.44;;;9.63;88.98
49461;BME280;35355;49.198;-0.368;2023-01-30T10:44:48;102163.69;;;9.76;88.90
49461;BME280;35355;49.198;-0.368;2023-01-30T10:47:29;102153.31;;;9.84;88.92
49461;BME280;35355;49.198;-0.368;2023-01-30T10:53:15;102149.38;;;10.06;88.38
49461;BME280;35355;49.198;-0.368;2023-01-30T10:55:58;102140.13;;;10.07;88.32
49461;BME280;35355;49.198;-0.368;2023-01-30T10:58:37;102135.88;;;10.11;88.85
49461;BME280;35355;49.198;-0.368;2023-01-30T11:01:31;102150.72;;;10.22;88.41
49461;BME280;35355;49.198;-0.368;2023-01-30T11:07:00;102142.44;;;10.28;88.11
49461;BME280;35355;49.198;-0.368;2023-01-30T11:12:03;102131.97;;;10.25;88.52
49461;BME280;35355;49.198;-0.368;2023-01-30T11:14:49;102140.63;;;10.22;87.92
49461;BME280;35355;49.198;-0.368;2023-01-30T11:17:15;102143.34;;;10.22;88.32
49461;BME280;35355;49.198;-0.368;2023-01-30T11:19:43;102145.44;;;10.20;88.24
49461;BME280;35355;49.198;-0.368;2023-01-30T11:22:12;102134.97;;;10.17;88.16
49461;BME280;35355;49.198;-0.368;2023-01-30T11:24:44;102142.56;;;10.15;88.15
49461;BME280;35355;49.198;-0.368;2023-01-30T11:29:37;102140.44;;;10.17;88.16
49461;BME280;35355;49.198;-0.368;2023-01-30T11:32:05;102127.44;;;10.19;88.07
49461;BME280;35355;49.198;-0.368;2023-01-30T11:34:35;102132.47;;;10.15;87.48
49461;BME280;35355;49.198;-0.368;2023-01-30T11:37:21;102135.44;;;10.14;87.67
49461;BME280;35355;49.198;-0.368;2023-01-30T11:39:51;102127.09;;;10.09;87.59
49461;BME280;35355;49.198;-0.368;2023-01-30T11:42:18;102131.94;;;10.07;87.41
49461;BME280;35355;49.198;-0.368;2023-01-30T11:44:44;102136.00;;;9.97;87.39
49461;BME280;35355;49.198;-0.368;2023-01-30T11:47:19;102147.84;;;9.84;87.11
49461;BME280;35355;49.198;-0.368;2023-01-30T11:49:48;102150.31;;;9.68;87.23
49461;BME280;35355;49.198;-0.368;2023-01-30T11:52:19;102145.16;;;9.53;87.55
49461;BME280;35355;49.198;-0.368;2023-01-30T11:54:47;102148.81;;;9.40;87.60
49461;BME280;35355;49.198;-0.368;2023-01-30T11:57:14;102157.44;;;9.37;87.45
49461;BME280;35355;49.198;-0.368;2023-01-30T12:02:23;102155.38;;;9.25;87.44
49461;BME280;35355;49.198;-0.368;2023-01-30T12:04:51;102155.81;;;9.22;87.17
49461;BME280;35355;49.198;-0.368;2023-01-30T12:07:27;102147.88;;;9.21;87.05
49461;BME280;35355;49.198;-0.368;2023-01-30T12:09:54;102143.44;;;9.26;87.27
49461;BME280;35355;49.198;-0.368;2023-01-30T12:12:33;102141.69;;;9.39;87.20
49461;BME280;35355;49.198;-0.368;2023-01-30T12:18:09;102140.28;;;9.61;86.47
49461;BME280;35355;49.198;-0.368;2023-01-30T12:28:55;102127.91;;;9.65;85.18
49461;BME280;35355;49.198;-0.368;2023-01-30T12:31:43;102128.72;;;9.66;84.98
49461;BME280;35355;49.198;-0.368;2023-01-30T12:34:10;102128.75;;;9.59;84.41
49461;BME280;35355;49.198;-0.368;2023-01-30T12:45:19;102128.13;;;9.25;84.61
49461;BME280;35355;49.198;-0.368;2023-01-30T12:47:59;102123.13;;;9.22;84.30
49461;BME280;35355;49.198;-0.368;2023-01-30T12:53:28;102121.56;;;9.01;84.32
49461;BME280;35355;49.198;-0.368;2023-01-30T12:58:58;102116.84;;;8.83;84.32
49461;BME280;35355;49.198;-0.368;2023-01-30T13:02:41;102113.09;;;8.77;84.53
49461;BME280;35355;49.198;-0.368;2023-01-30T13:04:49;102117.50;;;8.72;84.61
49461;BME280;35355;49.198;-0.368;2023-01-30T13:11:10;102108.91;;;8.75;84.49
49461;BME280;35355;49.198;-0.368;2023-01-30T13:18:36;102106.25;;;8.62;84.32
49461;BME280;35355;49.198;-0.368;2023-01-30T13:21:12;102116.75;;;8.58;84.09
49461;BME280;35355;49.198;-0.368;2023-01-30T13:26:29;102111.50;;;8.50;84.22
49461;BME280;35355;49.198;-0.368;2023-01-30T13:29:01;102113.63;;;8.48;84.02
49461;BME280;35355;49.198;-0.368;2023-01-30T13:31:31;102114.88;;;8.45;83.74
49461;BME280;35355;49.198;-0.368;2023-01-30T13:34:06;102124.72;;;8.46;83.86
49461;BME280;35355;49.198;-0.368;2023-01-30T13:37:14;102127.44;;;8.46;84.11
49461;BME280;35355;49.198;-0.368;2023-01-30T13:39:51;102124.91;;;8.38;84.31
49461;BME280;35355;49.198;-0.368;2023-01-30T13:44:48;102125.53;;;8.40;83.31
49461;BME280;35355;49.198;-0.368;2023-01-30T13:53:13;102134.31;;;8.49;83.77
49461;BME280;35355;49.198;-0.368;2023-01-30T13:55:56;102115.22;;;8.62;83.69
49461;BME280;35355;49.198;-0.368;2023-01-30T13:58:37;102127.53;;;8.78;83.54
49461;BME280;35355;49.198;-0.368;2023-01-30T14:01:09;102133.34;;;8.88;82.90
49461;BME280;35355;49.198;-0.368;2023-01-30T14:21:31;102136.63;;;8.58;82.24
49461;BME280;35355;49.198;-0.368;2023-01-30T14:24:01;102142.28;;;8.57;82.27
49461;BME280;35355;49.198;-0.368;2023-01-30T14:29:50;102137.22;;;8.60;82.51
49461;BME280;35355;49.198;-0.368;2023-01-30T14:34:48;102147.94;;;8.49;81.80
49461;BME280;35355;49.198;-0.368;2023-01-30T14:45:48;102152.34;;;8.16;81.95
49461;BME280;35355;49.198;-0.368;2023-01-30T14:54:32;102154.88;;;8.24;82.00
49461;BME280;35355;49.198;-0.368;2023-01-30T14:57:01;102160.50;;;8.30;81.76
49461;BME280;35355;49.198;-0.368;2023-01-30T14:59:34;102165.94;;;8.36;81.37
49461;BME280;35355;49.198;-0.368;2023-01-30T15:21:25;102176.38;;;8.39;80.27
49461;BME280;35355;49.198;-0.368;2023-01-30T15:32:32;102181.84;;;8.33;80.07
49461;BME280;35355;49.198;-0.368;2023-01-30T15:35:26;102178.31;;;8.25;79.66
49461;BME280;35355;49.198;-0.368;2023-01-30T15:37:56;102188.34;;;8.18;79.49
49461;BME280;35355;49.198;-0.368;2023-01-30T15:40:28;102190.22;;;8.11;79.74
49461;BME280;35355;49.198;-0.368;2023-01-30T15:50:56;102210.06;;;7.71;79.45
49461;BME280;35355;49.198;-0.368;2023-01-30T15:53:32;102206.69;;;7.63;79.79
49461;BME280;35355;49.198;-0.368;2023-01-30T15:56:08;102196.44;;;7.51;79.89
49461;BME280;35355;49.198;-0.368;2023-01-30T15:58:40;102203.53;;;7.46;80.34
49461;BME280;35355;49.198;-0.368;2023-01-30T16:01:07;102209.97;;;7.38;80.14
49461;BME280;35355;49.198;-0.368;2023-01-30T16:03:37;102222.31;;;7.34;80.28
49461;BME280;35355;49.198;-0.368;2023-01-30T16:06:05;102220.38;;;7.28;80.69
49461;BME280;35355;49.198;-0.368;2023-01-30T16:08:35;102215.34;;;7.25;80.80
49461;BME280;35355;49.198;-0.368;2023-01-30T16:11:01;102214.09;;;7.20;80.22
49461;BME280;35355;49.198;-0.368;2023-01-30T16:13:28;102226.63;;;7.15;80.84
49461;BME280;35355;49.198;-0.368;2023-01-30T16:16:10;102238.72;;;7.12;81.03
49461;BME280;35355;49.198;-0.368;2023-01-30T16:18:51;102244.94;;;7.06;80.80
49461;BME280;35355;49.198;-0.368;2023-01-30T16:23:54;102242.84;;;7.01;81.30